sensor_id;sensor_type;location;lat;lon;timestamp;temperature;humidity
22917;DHT22;11624;53.250;7.456;2023-04-24T00:01:07;17.50;59.97
22917;DHT22;11624;53.250;7.456;2023-04-24T00:03:36;17.50;59.74
22917;DHT22;11624;53.250;7.456;2023-04-24T00:06:06;17.50;59.64
22917;DHT22;11624;53.250;7.456;2023-04-24T00:08:35;17.46;59.67
22917;DHT22;11624;53.250;7.456;2023-04-24T00:11:03;17.48;59.38
22917;DHT22;11624;53.250;7.456;2023-04-24T00:13:32;17.52;58.81
22917;DHT22;11624;53.250;7.456;2023-04-24T00:16:00;17.48;58.75
22917;DHT22;11624;53.250;7.456;2023-04-24T00:18:29;17.50;58.25
22917;DHT22;11624;53.250;7.456;2023-04-24T00:20:57;17.53;58.10
22917;DHT22;11624;53.250;7.456;2023-04-24T00:23:25;17.36;58.12
22917;DHT22;11624;53.250;7.456;2023-04-24T00:25:53;17.28;58.08
22917;DHT22;11624;53.250;7.456;2023-04-24T00:28:21;17.18;58.27
22917;DHT22;11624;53.250;7.456;2023-04-24T00:30:50;17.11;58.09
22917;DHT22;11624;53.250;7.456;2023-04-24T00:33:19;17.04;57.64
22917;DHT22;11624;53.250;7.456;2023-04-24T00:35:47;17.07;57.93
22917;DHT22;11624;53.250;7.456;2023-04-24T00:38:15;17.09;57.67
22917;DHT22;11624;53.250;7.456;2023-04-24T00:40:47;16.89;57.78
22917;DHT22;11624;53.250;7.456;2023-04-24T00:43:23;16.82;57.13
22917;DHT22;11624;53.250;7.456;2023-04-24T00:46:00;16.78;57.36
22917;DHT22;11624;53.250;7.456;2023-04-24T00:48:32;16.71;58.03
22917;DHT22;11624;53.250;7.456;2023-04-24T00:51:11;16.59;58.16
22917;DHT22;11624;53.250;7.456;2023-04-24T00:53:51;16.58;58.22
22917;DHT22;11624;53.250;7.456;2023-04-24T00:56:28;16.57;58.16
22917;DHT22;11624;53.250;7.456;2023-04-24T01:02:26;16.40;59.01
22917;DHT22;11624;53.250;7.456;2023-04-24T01:05:19;16.33;59.44
22917;DHT22;11624;53.250;7.456;2023-04-24T01:08:07;16.36;59.48
22917;DHT22;11624;53.250;7.456;2023-04-24T01:10:49;16.30;59.52
22917;DHT22;11624;53.250;7.456;2023-04-24T01:13:47;16.30;59.73
22917;DHT22;11624;53.250;7.456;2023-04-24T01:16:32;16.25;59.94
22917;DHT22;11624;53.250;7.456;2023-04-24T01:19:14;16.26;59.50
22917;DHT22;11624;53.250;7.456;2023-04-24T01:21:47;16.30;59.76
22917;DHT22;11624;53.250;7.456;2023-04-24T01:24:37;16.28;59.50
22917;DHT22;11624;53.250;7.456;2023-04-24T01:27:22;16.15;60.22
22917;DHT22;11624;53.250;7.456;2023-04-24T01:30:06;16.08;60.42
22917;DHT22;11624;53.250;7.456;2023-04-24T01:32:35;16.00;60.70
22917;DHT22;11624;53.250;7.456;2023-04-24T01:35:05;16.00;60.71
22917;DHT22;11624;53.250;7.456;2023-04-24T01:37:34;15.98;60.71
22917;DHT22;11624;53.250;7.456;2023-04-24T01:40:07;15.92;60.80
22917;DHT22;11624;53.250;7.456;2023-04-24T01:42:35;15.92;60.89
22917;DHT22;11624;53.250;7.456;2023-04-24T01:45:13;15.87;61.09
22917;DHT22;11624;53.250;7.456;2023-04-24T01:47:47;15.83;61.28
22917;DHT22;11624;53.250;7.456;2023-04-24T01:50:16;15.83;61.30
22917;DHT22;11624;53.250;7.456;2023-04-24T01:52:47;15.83;61.34
22917;DHT22;11624;53.250;7.456;2023-04-24T01:55:22;15.68;61.88
22917;DHT22;11624;53.250;7.456;2023-04-24T01:57:52;15.73;61.63
22917;DHT22;11624;53.250;7.456;2023-04-24T02:03:30;15.70;61.38
22917;DHT22;11624;53.250;7.456;2023-04-24T02:06:07;15.61;61.97
22917;DHT22;11624;53.250;7.456;2023-04-24T02:08:39;15.58;62.03
22917;DHT22;11624;53.250;7.456;2023-04-24T02:11:18;15.51;61.73
22917;DHT22;11624;53.250;7.456;2023-04-24T02:13:49;15.49;62.16
22917;DHT22;11624;53.250;7.456;2023-04-24T02:16:30;15.43;62.47
22917;DHT22;11624;53.250;7.456;2023-04-24T02:19:21;15.38;62.36
22917;DHT22;11624;53.250;7.456;2023-04-24T02:21:50;15.46;62.30
22917;DHT22;11624;53.250;7.456;2023-04-24T02:24:20;15.41;62.36
22917;DHT22;11624;53.250;7.456;2023-04-24T02:26:51;15.37;62.55
22917;DHT22;11624;53.250;7.456;2023-04-24T02:29:24;15.32;62.62
22917;DHT22;11624;53.250;7.456;2023-04-24T02:32:00;15.27;62.82
22917;DHT22;11624;53.250;7.456;2023-04-24T02:34:30;15.29;62.82
22917;DHT22;11624;53.250;7.456;2023-04-24T02:37:02;15.12;63.04
22917;DHT22;11624;53.250;7.456;2023-04-24T02:39:30;15.22;63.01
22917;DHT22;11624;53.250;7.456;2023-04-24T02:42:04;15.26;62.68
22917;DHT22;11624;53.250;7.456;2023-04-24T02:44:39;15.24;62.76
22917;DHT22;11624;53.250;7.456;2023-04-24T02:47:28;15.28;62.63
22917;DHT22;11624;53.250;7.456;2023-04-24T02:50:29;15.28;62.63
22917;DHT22;11624;53.250;7.456;2023-04-24T02:53:30;15.40;62.15
22917;DHT22;11624;53.250;7.456;2023-04-24T02:56:38;15.30;62.81
22917;DHT22;11624;53.250;7.456;2023-04-24T02:59:15;15.33;62.44
22917;DHT22;11624;53.250;7.456;2023-04-24T03:02:19;15.39;62.72
22917;DHT22;11624;53.250;7.456;2023-04-24T03:04:51;15.34;62.83
22917;DHT22;11624;53.250;7.456;2023-04-24T03:07:49;15.26;62.92
22917;DHT22;11624;53.250;7.456;2023-04-24T03:10:36;15.16;63.16
22917;DHT22;11624;53.250;7.456;2023-04-24T03:13:21;15.23;63.25
22917;DHT22;11624;53.250;7.456;2023-04-24T03:15:51;15.28;63.25
22917;DHT22;11624;53.250;7.456;2023-04-24T03:18:30;15.03;63.92
22917;DHT22;11624;53.250;7.456;2023-04-24T03:21:13;15.17;63.28
22917;DHT22;11624;53.250;7.456;2023-04-24T03:23:59;15.24;63.23
22917;DHT22;11624;53.250;7.456;2023-04-24T03:26:53;15.25;62.94
22917;DHT22;11624;53.250;7.456;2023-04-24T03:29:50;15.30;62.96
22917;DHT22;11624;53.250;7.456;2023-04-24T03:32:27;15.14;63.37
22917;DHT22;11624;53.250;7.456;2023-04-24T03:35:01;15.14;63.44
22917;DHT22;11624;53.250;7.456;2023-04-24T03:37:36;15.23;63.34
22917;DHT22;11624;53.250;7.456;2023-04-24T03:40:29;15.18;63.23
22917;DHT22;11624;53.250;7.456;2023-04-24T03:42:58;15.08;63.40
22917;DHT22;11624;53.250;7.456;2023-04-24T03:45:26;15.17;62.88
22917;DHT22;11624;53.250;7.456;2023-04-24T03:47:56;15.14;63.03
22917;DHT22;11624;53.250;7.456;2023-04-24T03:50:24;15.25;62.81
22917;DHT22;11624;53.250;7.456;2023-04-24T03:52:53;15.36;62.43
22917;DHT22;11624;53.250;7.456;2023-04-24T03:55:33;15.33;62.32
22917;DHT22;11624;53.250;7.456;2023-04-24T03:58:01;15.23;62.53
22917;DHT22;11624;53.250;7.456;2023-04-24T04:00:29;15.14;62.82
22917;DHT22;11624;53.250;7.456;2023-04-24T04:03:24;15.10;62.69
22917;DHT22;11624;53.250;7.456;2023-04-24T04:05:53;15.18;62.51
22917;DHT22;11624;53.250;7.456;2023-04-24T04:08:22;15.13;62.32
22917;DHT22;11624;53.250;7.456;2023-04-24T04:10:50;15.21;62.08
22917;DHT22;11624;53.250;7.456;2023-04-24T04:13:18;15.26;61.84
22917;DHT22;11624;53.250;7.456;2023-04-24T04:15:46;15.09;62.27
22917;DHT22;11624;53.250;7.456;2023-04-24T04:18:14;15.23;61.84
22917;DHT22;11624;53.250;7.456;2023-04-24T04:20:44;15.30;61.57
22917;DHT22;11624;53.250;7.456;2023-04-24T04:23:14;15.31;61.47
22917;DHT22;11624;53.250;7.456;2023-04-24T04:26:05;15.27;61.44
22917;DHT22;11624;53.250;7.456;2023-04-24T04:29:07;15.30;61.28
22917;DHT22;11624;53.250;7.456;2023-04-24T04:31:39;15.26;61.44
22917;DHT22;11624;53.250;7.456;2023-04-24T04:34:10;15.23;61.47
22917;DHT22;11624;53.250;7.456;2023-04-24T04:36:42;15.01;61.92
22917;DHT22;11624;53.250;7.456;2023-04-24T04:39:24;15.06;62.01
22917;DHT22;11624;53.250;7.456;2023-04-24T04:42:07;15.15;61.74
22917;DHT22;11624;53.250;7.456;2023-04-24T04:44:40;15.07;61.75
22917;DHT22;11624;53.250;7.456;2023-04-24T04:47:14;15.12;61.74
22917;DHT22;11624;53.250;7.456;2023-04-24T04:49:43;15.07;61.74
22917;DHT22;11624;53.250;7.456;2023-04-24T04:52:24;15.22;61.48
22917;DHT22;11624;53.250;7.456;2023-04-24T04:55:06;15.23;61.47
22917;DHT22;11624;53.250;7.456;2023-04-24T04:57:54;15.21;61.41
22917;DHT22;11624;53.250;7.456;2023-04-24T05:00:24;15.18;61.54
22917;DHT22;11624;53.250;7.456;2023-04-24T05:02:54;15.21;61.55
22917;DHT22;11624;53.250;7.456;2023-04-24T05:05:39;15.15;61.60
22917;DHT22;11624;53.250;7.456;2023-04-24T05:08:12;15.13;61.63
22917;DHT22;11624;53.250;7.456;2023-04-24T05:10:43;15.13;61.80
22917;DHT22;11624;53.250;7.456;2023-04-24T05:13:11;15.21;61.65
22917;DHT22;11624;53.250;7.456;2023-04-24T05:15:40;15.22;61.50
22917;DHT22;11624;53.250;7.456;2023-04-24T05:18:08;15.25;61.54
22917;DHT22;11624;53.250;7.456;2023-04-24T05:20:37;15.17;61.60
22917;DHT22;11624;53.250;7.456;2023-04-24T05:23:05;15.10;61.84
22917;DHT22;11624;53.250;7.456;2023-04-24T05:25:34;15.25;61.60
22917;DHT22;11624;53.250;7.456;2023-04-24T05:28:07;15.13;61.79
22917;DHT22;11624;53.250;7.456;2023-04-24T05:30:35;15.12;61.92
22917;DHT22;11624;53.250;7.456;2023-04-24T05:33:03;15.07;62.05
22917;DHT22;11624;53.250;7.456;2023-04-24T05:35:34;15.15;61.74
22917;DHT22;11624;53.250;7.456;2023-04-24T05:38:02;15.26;61.57
22917;DHT22;11624;53.250;7.456;2023-04-24T05:40:31;15.26;61.54
22917;DHT22;11624;53.250;7.456;2023-04-24T05:43:00;15.23;61.40
22917;DHT22;11624;53.250;7.456;2023-04-24T05:45:28;15.13;61.59
22917;DHT22;11624;53.250;7.456;2023-04-24T05:47:56;15.13;61.63
22917;DHT22;11624;53.250;7.456;2023-04-24T05:50:24;15.11;61.83
22917;DHT22;11624;53.250;7.456;2023-04-24T05:52:53;15.01;62.17
22917;DHT22;11624;53.250;7.456;2023-04-24T05:55:24;14.99;62.30
22917;DHT22;11624;53.250;7.456;2023-04-24T05:57:53;15.01;62.34
22917;DHT22;11624;53.250;7.456;2023-04-24T06:00:23;15.09;62.21
22917;DHT22;11624;53.250;7.456;2023-04-24T06:02:59;15.14;62.10
22917;DHT22;11624;53.250;7.456;2023-04-24T06:05:31;15.07;62.46
22917;DHT22;11624;53.250;7.456;2023-04-24T06:07:59;15.13;62.37
22917;DHT22;11624;53.250;7.456;2023-04-24T06:10:32;15.16;62.41
22917;DHT22;11624;53.250;7.456;2023-04-24T06:13:00;15.13;62.53
22917;DHT22;11624;53.250;7.456;2023-04-24T06:15:31;15.16;62.43
22917;DHT22;11624;53.250;7.456;2023-04-24T06:18:05;15.08;62.64
22917;DHT22;11624;53.250;7.456;2023-04-24T06:20:33;15.13;62.64
22917;DHT22;11624;53.250;7.456;2023-04-24T06:23:01;15.16;62.73
22917;DHT22;11624;53.250;7.456;2023-04-24T06:25:32;15.19;62.60
22917;DHT22;11624;53.250;7.456;2023-04-24T06:28:00;15.21;62.41
22917;DHT22;11624;53.250;7.456;2023-04-24T06:30:31;15.24;62.57
22917;DHT22;11624;53.250;7.456;2023-04-24T06:33:00;15.29;62.69
22917;DHT22;11624;53.250;7.456;2023-04-24T06:35:45;15.31;62.60
22917;DHT22;11624;53.250;7.456;2023-04-24T06:38:13;15.29;62.65
22917;DHT22;11624;53.250;7.456;2023-04-24T06:40:43;15.30;62.57
22917;DHT22;11624;53.250;7.456;2023-04-24T06:43:11;15.30;62.63
22917;DHT22;11624;53.250;7.456;2023-04-24T06:45:40;15.39;62.63
22917;DHT22;11624;53.250;7.456;2023-04-24T06:48:10;15.47;62.73
22917;DHT22;11624;53.250;7.456;2023-04-24T06:50:38;15.42;62.56
22917;DHT22;11624;53.250;7.456;2023-04-24T06:53:06;15.45;62.53
22917;DHT22;11624;53.250;7.456;2023-04-24T06:55:35;15.58;62.29
22917;DHT22;11624;53.250;7.456;2023-04-24T06:58:03;15.55;62.24
22917;DHT22;11624;53.250;7.456;2023-04-24T07:00:32;15.42;62.47
22917;DHT22;11624;53.250;7.456;2023-04-24T07:03:02;15.42;62.42
22917;DHT22;11624;53.250;7.456;2023-04-24T07:05:32;15.23;62.96
22917;DHT22;11624;53.250;7.456;2023-04-24T07:08:02;15.41;62.60
22917;DHT22;11624;53.250;7.456;2023-04-24T07:10:31;15.24;63.02
22917;DHT22;11624;53.250;7.456;2023-04-24T07:13:02;15.31;62.64
22917;DHT22;11624;53.250;7.456;2023-04-24T07:15:30;15.31;62.82
22917;DHT22;11624;53.250;7.456;2023-04-24T07:17:59;15.31;62.63
22917;DHT22;11624;53.250;7.456;2023-04-24T07:20:32;15.39;62.45
22917;DHT22;11624;53.250;7.456;2023-04-24T07:23:01;15.36;62.80
22917;DHT22;11624;53.250;7.456;2023-04-24T07:25:29;15.42;62.75
22917;DHT22;11624;53.250;7.456;2023-04-24T07:27:58;15.56;62.53
22917;DHT22;11624;53.250;7.456;2023-04-24T07:30:26;15.56;62.58
22917;DHT22;11624;53.250;7.456;2023-04-24T07:32:55;15.53;62.71
22917;DHT22;11624;53.250;7.456;2023-04-24T07:35:23;15.44;63.04
22917;DHT22;11624;53.250;7.456;2023-04-24T07:37:54;15.42;63.19
22917;DHT22;11624;53.250;7.456;2023-04-24T07:40:22;15.46;63.32
22917;DHT22;11624;53.250;7.456;2023-04-24T07:42:50;15.56;63.11
22917;DHT22;11624;53.250;7.456;2023-04-24T07:45:18;15.63;62.89
22917;DHT22;11624;53.250;7.456;2023-04-24T07:47:47;15.68;63.04
22917;DHT22;11624;53.250;7.456;2023-04-24T07:50:15;15.62;62.73
22917;DHT22;11624;53.250;7.456;2023-04-24T07:52:43;15.57;63.02
22917;DHT22;11624;53.250;7.456;2023-04-24T07:55:12;15.58;62.94
22917;DHT22;11624;53.250;7.456;2023-04-24T07:57:40;15.45;62.89
22917;DHT22;11624;53.250;7.456;2023-04-24T08:00:10;15.39;63.27
22917;DHT22;11624;53.250;7.456;2023-04-24T08:02:38;15.44;63.04
22917;DHT22;11624;53.250;7.456;2023-04-24T08:05:07;15.43;63.04
22917;DHT22;11624;53.250;7.456;2023-04-24T08:07:35;15.41;63.15
22917;DHT22;11624;53.250;7.456;2023-04-24T08:10:04;15.40;63.22
22917;DHT22;11624;53.250;7.456;2023-04-24T08:12:34;15.43;63.23
22917;DHT22;11624;53.250;7.456;2023-04-24T08:15:03;15.39;63.34
22917;DHT22;11624;53.250;7.456;2023-04-24T08:17:32;15.43;63.35
22917;DHT22;11624;53.250;7.456;2023-04-24T08:20:00;15.32;63.56
22917;DHT22;11624;53.250;7.456;2023-04-24T08:22:29;15.45;63.53
22917;DHT22;11624;53.250;7.456;2023-04-24T08:24:59;15.49;63.54
22917;DHT22;11624;53.250;7.456;2023-04-24T08:27:27;15.43;63.37
22917;DHT22;11624;53.250;7.456;2023-04-24T08:29:57;15.48;63.40
22917;DHT22;11624;53.250;7.456;2023-04-24T08:32:25;15.52;63.36
22917;DHT22;11624;53.250;7.456;2023-04-24T08:34:55;15.52;63.22
22917;DHT22;11624;53.250;7.456;2023-04-24T08:37:25;15.53;63.38
22917;DHT22;11624;53.250;7.456;2023-04-24T08:39:53;15.57;63.08
22917;DHT22;11624;53.250;7.456;2023-04-24T08:42:21;15.70;62.98
22917;DHT22;11624;53.250;7.456;2023-04-24T08:44:49;15.70;62.95
22917;DHT22;11624;53.250;7.456;2023-04-24T08:47:20;15.65;63.11
22917;DHT22;11624;53.250;7.456;2023-04-24T08:49:50;15.65;63.11
22917;DHT22;11624;53.250;7.456;2023-04-24T08:52:18;15.58;63.26
22917;DHT22;11624;53.250;7.456;2023-04-24T08:54:47;15.59;63.18
22917;DHT22;11624;53.250;7.456;2023-04-24T08:57:16;15.62;63.21
22917;DHT22;11624;53.250;7.456;2023-04-24T08:59:44;15.66;63.24
22917;DHT22;11624;53.250;7.456;2023-04-24T09:02:13;15.67;63.24
22917;DHT22;11624;53.250;7.456;2023-04-24T09:04:44;15.76;62.93
22917;DHT22;11624;53.250;7.456;2023-04-24T09:07:16;15.89;62.66
22917;DHT22;11624;53.250;7.456;2023-04-24T09:09:45;15.97;62.67
22917;DHT22;11624;53.250;7.456;2023-04-24T09:12:13;16.06;62.62
22917;DHT22;11624;53.250;7.456;2023-04-24T09:14:41;16.14;62.53
22917;DHT22;11624;53.250;7.456;2023-04-24T09:17:12;16.18;62.44
22917;DHT22;11624;53.250;7.456;2023-04-24T09:19:41;16.26;62.38
22917;DHT22;11624;53.250;7.456;2023-04-24T09:22:12;16.29;62.46
22917;DHT22;11624;53.250;7.456;2023-04-24T09:24:40;16.33;62.53
22917;DHT22;11624;53.250;7.456;2023-04-24T09:27:11;16.36;62.15
22917;DHT22;11624;53.250;7.456;2023-04-24T09:29:39;16.34;62.11
22917;DHT22;11624;53.250;7.456;2023-04-24T09:32:25;16.18;61.54
22917;DHT22;11624;53.250;7.456;2023-04-24T09:35:09;16.14;61.63
22917;DHT22;11624;53.250;7.456;2023-04-24T09:37:41;16.07;62.03
22917;DHT22;11624;53.250;7.456;2023-04-24T09:40:12;16.03;62.32
22917;DHT22;11624;53.250;7.456;2023-04-24T09:42:43;16.11;62.07
22917;DHT22;11624;53.250;7.456;2023-04-24T09:45:12;16.17;62.10
22917;DHT22;11624;53.250;7.456;2023-04-24T09:47:42;16.24;62.14
22917;DHT22;11624;53.250;7.456;2023-04-24T09:50:15;16.28;61.92
22917;DHT22;11624;53.250;7.456;2023-04-24T09:52:57;16.28;61.41
22917;DHT22;11624;53.250;7.456;2023-04-24T09:55:26;16.27;61.63
22917;DHT22;11624;53.250;7.456;2023-04-24T09:58:01;16.25;61.65
22917;DHT22;11624;53.250;7.456;2023-04-24T10:01:13;16.27;61.68
22917;DHT22;11624;53.250;7.456;2023-04-24T10:03:48;16.26;61.63
22917;DHT22;11624;53.250;7.456;2023-04-24T10:06:34;16.25;61.42
22917;DHT22;11624;53.250;7.456;2023-04-24T10:09:07;16.30;61.70
22917;DHT22;11624;53.250;7.456;2023-04-24T10:11:41;16.39;61.19
22917;DHT22;11624;53.250;7.456;2023-04-24T10:14:12;16.35;61.26
22917;DHT22;11624;53.250;7.456;2023-04-24T10:16:41;16.37;61.17
22917;DHT22;11624;53.250;7.456;2023-04-24T10:19:10;16.35;61.21
22917;DHT22;11624;53.250;7.456;2023-04-24T10:24:36;16.30;60.57
22917;DHT22;11624;53.250;7.456;2023-04-24T10:27:13;16.19;60.62
22917;DHT22;11624;53.250;7.456;2023-04-24T10:29:45;16.11;60.38
22917;DHT22;11624;53.250;7.456;2023-04-24T10:32:15;16.00;60.46
22917;DHT22;11624;53.250;7.456;2023-04-24T10:34:43;15.89;60.55
22917;DHT22;11624;53.250;7.456;2023-04-24T10:37:11;15.75;60.85
22917;DHT22;11624;53.250;7.456;2023-04-24T10:43:44;15.70;60.85
22917;DHT22;11624;53.250;7.456;2023-04-24T10:46:20;15.68;60.86
22917;DHT22;11624;53.250;7.456;2023-04-24T10:48:52;15.62;60.56
22917;DHT22;11624;53.250;7.456;2023-04-24T10:51:44;15.58;60.64
22917;DHT22;11624;53.250;7.456;2023-04-24T10:54:23;15.70;60.48
22917;DHT22;11624;53.250;7.456;2023-04-24T10:57:26;15.77;59.98
22917;DHT22;11624;53.250;7.456;2023-04-24T11:00:30;15.68;59.93
22917;DHT22;11624;53.250;7.456;2023-04-24T11:03:08;15.63;59.58
22917;DHT22;11624;53.250;7.456;2023-04-24T11:05:52;15.61;60.00
22917;DHT22;11624;53.250;7.456;2023-04-24T11:08:53;15.57;60.04
22917;DHT22;11624;53.250;7.456;2023-04-24T11:12:14;15.53;59.90
22917;DHT22;11624;53.250;7.456;2023-04-24T11:15:21;15.53;59.62
22917;DHT22;11624;53.250;7.456;2023-04-24T11:18:37;15.51;59.83
22917;DHT22;11624;53.250;7.456;2023-04-24T11:21:38;15.54;59.68
22917;DHT22;11624;53.250;7.456;2023-04-24T11:24:30;15.52;59.55
22917;DHT22;11624;53.250;7.456;2023-04-24T11:27:06;15.45;59.32
22917;DHT22;11624;53.250;7.456;2023-04-24T11:30:00;15.36;59.48
22917;DHT22;11624;53.250;7.456;2023-04-24T11:32:37;15.23;59.70
22917;DHT22;11624;53.250;7.456;2023-04-24T11:35:21;14.91;60.01
22917;DHT22;11624;53.250;7.456;2023-04-24T11:37:52;14.80;60.65
22917;DHT22;11624;53.250;7.456;2023-04-24T11:40:24;14.82;60.77
22917;DHT22;11624;53.250;7.456;2023-04-24T11:42:53;14.86;60.98
22917;DHT22;11624;53.250;7.456;2023-04-24T11:45:23;14.92;61.14
22917;DHT22;11624;53.250;7.456;2023-04-24T11:47:52;14.98;61.16
22917;DHT22;11624;53.250;7.456;2023-04-24T11:50:24;15.04;61.18
22917;DHT22;11624;53.250;7.456;2023-04-24T11:52:58;15.11;60.99
22917;DHT22;11624;53.250;7.456;2023-04-24T11:55:28;15.25;60.86
22917;DHT22;11624;53.250;7.456;2023-04-24T11:57:58;15.34;60.87
22917;DHT22;11624;53.250;7.456;2023-04-24T12:00:28;15.40;60.37
22917;DHT22;11624;53.250;7.456;2023-04-24T12:03:06;15.30;58.88
22917;DHT22;11624;53.250;7.456;2023-04-24T12:05:37;15.38;59.12
22917;DHT22;11624;53.250;7.456;2023-04-24T12:08:06;15.27;59.35
22917;DHT22;11624;53.250;7.456;2023-04-24T12:10:35;15.19;58.48
22917;DHT22;11624;53.250;7.456;2023-04-24T12:13:03;15.27;59.25
22917;DHT22;11624;53.250;7.456;2023-04-24T12:15:32;15.34;59.17
22917;DHT22;11624;53.250;7.456;2023-04-24T12:18:00;15.45;58.99
22917;DHT22;11624;53.250;7.456;2023-04-24T12:20:29;15.48;59.04
22917;DHT22;11624;53.250;7.456;2023-04-24T12:23:00;15.46;58.80
22917;DHT22;11624;53.250;7.456;2023-04-24T12:25:30;15.57;58.51
22917;DHT22;11624;53.250;7.456;2023-04-24T12:28:09;15.51;57.58
22917;DHT22;11624;53.250;7.456;2023-04-24T12:30:41;15.52;58.09
22917;DHT22;11624;53.250;7.456;2023-04-24T12:33:11;15.63;58.03
22917;DHT22;11624;53.250;7.456;2023-04-24T12:35:40;15.75;57.88
22917;DHT22;11624;53.250;7.456;2023-04-24T12:38:11;15.82;57.71
22917;DHT22;11624;53.250;7.456;2023-04-24T12:40:41;15.89;57.54
22917;DHT22;11624;53.250;7.456;2023-04-24T12:43:14;15.90;56.93
22917;DHT22;11624;53.250;7.456;2023-04-24T12:45:43;15.85;56.70
22917;DHT22;11624;53.250;7.456;2023-04-24T12:48:14;15.83;56.12
22917;DHT22;11624;53.250;7.456;2023-04-24T12:50:43;15.74;54.94
22917;DHT22;11624;53.250;7.456;2023-04-24T12:53:15;15.86;55.37
22917;DHT22;11624;53.250;7.456;2023-04-24T12:55:43;15.90;54.99
22917;DHT22;11624;53.250;7.456;2023-04-24T12:58:13;15.91;54.71
22917;DHT22;11624;53.250;7.456;2023-04-24T13:00:42;15.95;54.79
22917;DHT22;11624;53.250;7.456;2023-04-24T13:03:13;15.87;54.84
22917;DHT22;11624;53.250;7.456;2023-04-24T13:05:43;15.89;54.62
22917;DHT22;11624;53.250;7.456;2023-04-24T13:08:11;15.90;54.69
22917;DHT22;11624;53.250;7.456;2023-04-24T13:10:41;15.93;54.55
22917;DHT22;11624;53.250;7.456;2023-04-24T13:13:09;15.87;54.26
22917;DHT22;11624;53.250;7.456;2023-04-24T13:15:37;15.81;53.94
22917;DHT22;11624;53.250;7.456;2023-04-24T13:18:06;15.82;53.91
22917;DHT22;11624;53.250;7.456;2023-04-24T13:20:34;15.84;53.68
22917;DHT22;11624;53.250;7.456;2023-04-24T13:23:03;15.85;53.43
22917;DHT22;11624;53.250;7.456;2023-04-24T13:25:35;15.78;53.14
22917;DHT22;11624;53.250;7.456;2023-04-24T13:28:05;15.76;53.25
22917;DHT22;11624;53.250;7.456;2023-04-24T13:30:33;15.62;52.65
22917;DHT22;11624;53.250;7.456;2023-04-24T13:33:01;15.55;53.16
22917;DHT22;11624;53.250;7.456;2023-04-24T13:35:30;15.44;53.31
22917;DHT22;11624;53.250;7.456;2023-04-24T13:37:58;15.41;53.25
22917;DHT22;11624;53.250;7.456;2023-04-24T13:40:27;15.43;53.38
22917;DHT22;11624;53.250;7.456;2023-04-24T13:42:56;15.42;53.14
22917;DHT22;11624;53.250;7.456;2023-04-24T13:45:25;15.44;53.09
22917;DHT22;11624;53.250;7.456;2023-04-24T13:47:53;15.54;53.24
22917;DHT22;11624;53.250;7.456;2023-04-24T13:50:23;15.57;53.61
22917;DHT22;11624;53.250;7.456;2023-04-24T13:52:52;15.56;53.96
22917;DHT22;11624;53.250;7.456;2023-04-24T13:55:20;15.65;53.98
22917;DHT22;11624;53.250;7.456;2023-04-24T13:57:49;15.61;53.61
22917;DHT22;11624;53.250;7.456;2023-04-24T14:00:19;15.60;53.14
22917;DHT22;11624;53.250;7.456;2023-04-24T14:02:49;15.56;53.04
22917;DHT22;11624;53.250;7.456;2023-04-24T14:05:17;15.55;53.26
22917;DHT22;11624;53.250;7.456;2023-04-24T14:07:47;15.46;53.30
22917;DHT22;11624;53.250;7.456;2023-04-24T14:10:16;15.39;53.49
22917;DHT22;11624;53.250;7.456;2023-04-24T14:12:44;15.36;53.75
22917;DHT22;11624;53.250;7.456;2023-04-24T14:15:12;15.29;54.12
22917;DHT22;11624;53.250;7.456;2023-04-24T14:17:40;15.19;54.36
22917;DHT22;11624;53.250;7.456;2023-04-24T14:20:11;15.15;54.31
22917;DHT22;11624;53.250;7.456;2023-04-24T14:22:39;15.07;54.94
22917;DHT22;11624;53.250;7.456;2023-04-24T14:25:08;14.99;54.94
22917;DHT22;11624;53.250;7.456;2023-04-24T14:27:36;14.94;54.93
22917;DHT22;11624;53.250;7.456;2023-04-24T14:30:06;14.92;54.77
22917;DHT22;11624;53.250;7.456;2023-04-24T14:32:34;14.89;55.11
22917;DHT22;11624;53.250;7.456;2023-04-24T14:35:03;14.85;55.43
22917;DHT22;11624;53.250;7.456;2023-04-24T14:37:32;14.83;55.52
22917;DHT22;11624;53.250;7.456;2023-04-24T14:40:01;14.88;54.87
22917;DHT22;11624;53.250;7.456;2023-04-24T14:42:49;14.92;54.31
22917;DHT22;11624;53.250;7.456;2023-04-24T14:45:18;14.83;54.79
22917;DHT22;11624;53.250;7.456;2023-04-24T14:47:46;14.96;54.61
22917;DHT22;11624;53.250;7.456;2023-04-24T14:50:14;15.16;54.41
22917;DHT22;11624;53.250;7.456;2023-04-24T14:52:44;15.38;53.88
22917;DHT22;11624;53.250;7.456;2023-04-24T14:55:13;15.44;53.64
22917;DHT22;11624;53.250;7.456;2023-04-24T14:57:42;15.46;53.59
22917;DHT22;11624;53.250;7.456;2023-04-24T15:00:11;15.45;53.48
22917;DHT22;11624;53.250;7.456;2023-04-24T15:02:39;15.31;53.61
22917;DHT22;11624;53.250;7.456;2023-04-24T15:05:09;15.27;53.52
22917;DHT22;11624;53.250;7.456;2023-04-24T15:07:38;15.11;53.54
22917;DHT22;11624;53.250;7.456;2023-04-24T15:10:10;14.96;53.46
22917;DHT22;11624;53.250;7.456;2023-04-24T15:12:38;14.91;54.13
22917;DHT22;11624;53.250;7.456;2023-04-24T15:15:08;14.69;55.94
22917;DHT22;11624;53.250;7.456;2023-04-24T15:17:37;14.67;56.91
22917;DHT22;11624;53.250;7.456;2023-04-24T15:20:06;14.66;57.45
22917;DHT22;11624;53.250;7.456;2023-04-24T15:22:35;14.72;57.45
22917;DHT22;11624;53.250;7.456;2023-04-24T15:25:04;14.82;57.56
22917;DHT22;11624;53.250;7.456;2023-04-24T15:27:42;15.04;57.15
22917;DHT22;11624;53.250;7.456;2023-04-24T15:30:11;15.10;56.64
22917;DHT22;11624;53.250;7.456;2023-04-24T15:32:40;15.08;56.46
22917;DHT22;11624;53.250;7.456;2023-04-24T15:35:09;15.04;56.51
22917;DHT22;11624;53.250;7.456;2023-04-24T15:37:38;14.95;57.07
22917;DHT22;11624;53.250;7.456;2023-04-24T15:40:07;14.95;56.85
22917;DHT22;11624;53.250;7.456;2023-04-24T15:42:38;14.95;57.74
22917;DHT22;11624;53.250;7.456;2023-04-24T15:45:09;15.09;57.58
22917;DHT22;11624;53.250;7.456;2023-04-24T15:47:37;15.12;57.92
22917;DHT22;11624;53.250;7.456;2023-04-24T15:50:06;15.03;58.03
22917;DHT22;11624;53.250;7.456;2023-04-24T15:52:39;15.12;57.93
22917;DHT22;11624;53.250;7.456;2023-04-24T15:55:09;15.17;57.71
22917;DHT22;11624;53.250;7.456;2023-04-24T15:57:37;15.15;57.67
22917;DHT22;11624;53.250;7.456;2023-04-24T16:00:08;15.10;58.07
22917;DHT22;11624;53.250;7.456;2023-04-24T16:02:39;15.21;57.75
22917;DHT22;11624;53.250;7.456;2023-04-24T16:05:08;15.11;57.67
22917;DHT22;11624;53.250;7.456;2023-04-24T16:07:37;15.08;58.12
22917;DHT22;11624;53.250;7.456;2023-04-24T16:10:06;15.06;58.37
22917;DHT22;11624;53.250;7.456;2023-04-24T16:12:34;15.11;58.35
22917;DHT22;11624;53.250;7.456;2023-04-24T16:15:03;15.02;58.53
22917;DHT22;11624;53.250;7.456;2023-04-24T16:17:33;14.94;58.78
22917;DHT22;11624;53.250;7.456;2023-04-24T16:20:01;14.85;58.53